createdAt,value
2023-05-24T00:01:04.845Z,3.60
2023-05-24T00:03:26.083Z,3.70
2023-05-24T00:05:48.083Z,4.00
2023-05-24T00:08:09.217Z,3.63
2023-05-24T00:10:31.776Z,3.53
2023-05-24T00:12:53.214Z,3.27
2023-05-24T00:15:14.668Z,3.80
2023-05-24T00:17:41.292Z,3.80
2023-05-24T00:20:03.808Z,3.47
2023-05-24T00:22:26.435Z,3.67
2023-05-24T00:24:47.713Z,3.43
2023-05-24T00:27:11.867Z,3.40
2023-05-24T00:29:33.236Z,3.40
2023-05-24T00:31:54.679Z,3.30
2023-05-24T00:34:16.126Z,3.60
2023-05-24T00:36:38.242Z,3.50
2023-05-24T00:38:59.858Z,3.27
2023-05-24T00:41:21.101Z,3.80
2023-05-24T00:43:44.343Z,3.57
2023-05-24T00:46:17.237Z,3.40
2023-05-24T00:48:38.634Z,3.70
2023-05-24T00:51:00.120Z,3.53
2023-05-24T00:53:21.878Z,3.67
2023-05-24T00:55:43.007Z,3.87
2023-05-24T00:58:04.445Z,3.80
2023-05-24T01:00:27.071Z,3.50
2023-05-24T01:02:49.803Z,3.53
2023-05-24T01:05:13.756Z,3.70
2023-05-24T01:07:38.926Z,3.37
2023-05-24T01:10:04.662Z,3.60
2023-05-24T01:12:29.676Z,3.70
2023-05-24T01:14:54.980Z,3.63
2023-05-24T01:17:20.614Z,3.30
2023-05-24T01:19:49.892Z,3.20
2023-05-24T01:22:18.971Z,3.73
2023-05-24T01:24:49.552Z,3.97
2023-05-24T01:27:13.973Z,3.57
2023-05-24T01:29:35.586Z,3.70
2023-05-24T01:31:57.736Z,3.47
2023-05-24T01:34:18.749Z,3.80
2023-05-24T01:36:40.050Z,3.07
2023-05-24T01:39:01.333Z,3.83
2023-05-24T01:41:29.493Z,4.07
2023-05-24T01:43:56.697Z,4.03
2023-05-24T01:46:22.897Z,3.90
2023-05-24T01:48:49.301Z,3.83
2023-05-24T01:51:11.747Z,3.90
2023-05-24T01:53:34.956Z,3.90
2023-05-24T01:55:57.699Z,4.10
2023-05-24T01:58:20.358Z,4.13
2023-05-24T02:00:44.407Z,4.40
2023-05-24T02:03:06.393Z,3.50
2023-05-24T02:05:27.933Z,4.07
2023-05-24T02:07:49.214Z,4.10
2023-05-24T02:10:11.319Z,3.93
2023-05-24T02:12:32.360Z,3.53
2023-05-24T02:14:54.573Z,4.17
2023-05-24T02:17:18.152Z,3.80
2023-05-24T02:19:39.285Z,4.10
2023-05-24T02:22:00.359Z,3.77
2023-05-24T02:24:21.589Z,3.90
2023-05-24T02:26:42.805Z,3.93
2023-05-24T02:29:04.039Z,4.23
2023-05-24T02:31:28.775Z,4.07
2023-05-24T02:33:51.655Z,3.70
2023-05-24T02:36:12.945Z,3.90
2023-05-24T02:38:34.255Z,4.17
2023-05-24T02:40:55.597Z,4.30
2023-05-24T02:43:16.928Z,3.80
2023-05-24T02:45:37.907Z,3.60
2023-05-24T02:47:59.263Z,4.03
2023-05-24T02:50:21.647Z,4.07
2023-05-24T02:52:42.985Z,4.70
2023-05-24T02:55:04.119Z,4.03
2023-05-24T02:57:25.563Z,3.83
2023-05-24T02:59:46.676Z,4.43
2023-05-24T03:02:07.861Z,4.57
2023-05-24T03:04:29.213Z,4.23
2023-05-24T03:06:53.435Z,3.97
2023-05-24T03:09:16.347Z,4.20
2023-05-24T03:11:37.686Z,4.47
2023-05-24T03:13:59.132Z,3.90
2023-05-24T03:16:21.102Z,4.80
2023-05-24T03:18:42.218Z,4.30
2023-05-24T03:21:03.675Z,3.90
2023-05-24T03:23:26.213Z,4.03
2023-05-24T03:25:47.507Z,4.50
2023-05-24T03:28:08.899Z,4.43
2023-05-24T03:30:30.323Z,4.03
2023-05-24T03:32:51.510Z,4.27
2023-05-24T03:35:12.998Z,4.57
2023-05-24T03:37:34.282Z,4.50
2023-05-24T03:39:56.955Z,4.30
2023-05-24T03:42:18.491Z,4.27
2023-05-24T03:44:40.127Z,4.40
2023-05-24T03:47:01.485Z,4.80
2023-05-24T03:49:22.769Z,4.73
2023-05-24T03:51:44.302Z,4.83
2023-05-24T03:54:06.163Z,4.27
2023-05-24T03:56:28.488Z,4.67
2023-05-24T03:58:49.702Z,4.60
2023-05-24T04:01:16.362Z,5.17
2023-05-24T04:03:47.201Z,4.80
2023-05-24T04:06:08.571Z,4.73
2023-05-24T04:08:29.996Z,4.40
2023-05-24T04:10:51.284Z,4.73
2023-05-24T04:13:13.876Z,4.27
2023-05-24T04:15:35.087Z,4.63
2023-05-24T04:17:56.631Z,5.10
2023-05-24T04:20:17.917Z,4.77
2023-05-24T04:22:39.283Z,4.80
2023-05-24T04:25:00.837Z,4.73
2023-05-24T04:27:22.273Z,4.70
2023-05-24T04:29:45.846Z,4.70
2023-05-24T04:32:07.156Z,4.67
2023-05-24T04:34:29.720Z,4.30
2023-05-24T04:36:53.515Z,4.47
2023-05-24T04:39:14.794Z,4.57
2023-05-24T04:41:37.290Z,5.00
2023-05-24T04:43:59.763Z,4.60
2023-05-24T04:46:22.736Z,4.63
2023-05-24T04:48:44.680Z,4.97
2023-05-24T04:51:05.640Z,4.50
2023-05-24T04:53:27.070Z,4.70
2023-05-24T04:55:48.613Z,5.00
2023-05-24T04:58:10.744Z,4.33
2023-05-24T05:00:32.810Z,4.67
2023-05-24T05:02:55.351Z,4.73
2023-05-24T05:05:16.585Z,4.93
2023-05-24T05:07:38.525Z,4.97
2023-05-24T05:09:59.962Z,4.60
2023-05-24T05:12:21.237Z,4.47
2023-05-24T05:14:42.729Z,4.73
2023-05-24T05:17:04.148Z,4.27
2023-05-24T05:19:26.833Z,4.40
2023-05-24T05:21:48.193Z,4.50
2023-05-24T05:24:09.607Z,4.80
2023-05-24T05:26:30.873Z,4.37
2023-05-24T05:28:51.898Z,4.60
2023-05-24T05:31:13.201Z,4.70
2023-05-24T05:33:34.792Z,4.70
2023-05-24T05:35:57.673Z,4.37
2023-05-24T05:38:18.668Z,4.50
2023-05-24T05:40:39.888Z,4.70
2023-05-24T05:43:00.952Z,4.70
2023-05-24T05:45:22.325Z,4.50
2023-05-24T05:47:43.908Z,4.73
2023-05-24T05:50:05.657Z,4.60
2023-05-24T05:52:28.051Z,4.40
2023-05-24T05:54:49.358Z,4.63
2023-05-24T05:57:11.641Z,4.40
2023-05-24T05:59:35.980Z,4.93
2023-05-24T06:01:57.064Z,4.30
2023-05-24T06:04:18.586Z,4.50
2023-05-24T06:06:39.991Z,4.20
2023-05-24T06:09:02.614Z,4.43
2023-05-24T06:11:23.881Z,4.47
2023-05-24T06:13:44.908Z,4.70
2023-05-24T06:16:08.558Z,4.57
2023-05-24T06:18:30.560Z,4.30
2023-05-24T06:20:52.205Z,4.17
2023-05-24T06:23:13.631Z,4.60
2023-05-24T06:25:36.368Z,4.47
2023-05-24T06:27:57.642Z,4.23
2023-05-24T06:30:19.160Z,4.97
2023-05-24T06:32:40.814Z,4.60
2023-05-24T06:35:02.366Z,4.50
2023-05-24T06:37:25.377Z,4.60
2023-05-24T06:39:46.516Z,5.07
2023-05-24T06:42:09.080Z,4.80
2023-05-24T06:44:34.310Z,4.33
2023-05-24T06:46:55.766Z,4.73
2023-05-24T06:49:16.956Z,4.63
2023-05-24T06:51:38.388Z,4.73
2023-05-24T06:53:59.766Z,4.50
2023-05-24T06:56:21.485Z,4.27
2023-05-24T06:58:44.305Z,4.97
2023-05-24T07:01:05.625Z,4.90
2023-05-24T07:03:26.646Z,4.70
2023-05-24T07:05:47.765Z,4.63
2023-05-24T07:08:09.401Z,5.07
2023-05-24T07:10:30.501Z,4.60
2023-05-24T07:12:52.216Z,4.93
2023-05-24T07:15:14.646Z,4.50
2023-05-24T07:17:35.853Z,4.60
2023-05-24T07:19:56.886Z,4.60
2023-05-24T07:22:18.297Z,4.40
2023-05-24T07:24:39.705Z,5.03
2023-05-24T07:27:00.973Z,4.50
2023-05-24T07:29:22.478Z,4.70
2023-05-24T07:31:45.339Z,5.03
2023-05-24T07:34:06.599Z,4.73
2023-05-24T07:36:34.757Z,4.50
2023-05-24T07:38:56.472Z,4.30
2023-05-24T07:41:18.305Z,4.70
2023-05-24T07:43:39.267Z,4.80
2023-05-24T07:46:00.644Z,5.03
2023-05-24T07:48:24.346Z,5.37
2023-05-24T07:50:48.648Z,4.90
2023-05-24T07:53:10.031Z,5.20
2023-05-24T07:55:31.349Z,5.20
2023-05-24T07:57:52.586Z,5.30
2023-05-24T08:00:15.327Z,5.13
2023-05-24T08:02:36.689Z,4.60
2023-05-24T08:05:00.210Z,4.73
2023-05-24T08:07:22.455Z,4.70
2023-05-24T08:09:44.152Z,5.10
2023-05-24T08:12:06.181Z,4.90
2023-05-24T08:14:28.079Z,5.03
2023-05-24T08:16:49.583Z,5.17
2023-05-24T08:19:10.884Z,5.07
2023-05-24T08:21:34.099Z,4.97
2023-05-24T08:23:55.590Z,4.70
2023-05-24T08:26:19.182Z,5.07
2023-05-24T08:28:40.380Z,5.20
2023-05-24T08:31:01.621Z,4.90
2023-05-24T08:33:23.330Z,4.53
2023-05-24T08:35:44.709Z,5.17
2023-05-24T08:38:07.918Z,5.00
2023-05-24T08:40:29.063Z,4.77
2023-05-24T08:42:51.055Z,4.90
2023-05-24T08:45:13.362Z,5.00
2023-05-24T08:47:35.262Z,4.97
2023-05-24T08:49:56.688Z,5.60
2023-05-24T08:52:18.532Z,5.20
2023-05-24T08:54:41.553Z,5.43
2023-05-24T08:57:03.076Z,5.07
2023-05-24T08:59:25.103Z,4.90
2023-05-24T09:01:49.289Z,4.90
2023-05-24T09:04:11.812Z,5.30
2023-05-24T09:06:33.894Z,5.10
2023-05-24T09:08:54.880Z,4.70
2023-05-24T09:11:19.609Z,5.10
2023-05-24T09:13:41.066Z,4.83
2023-05-24T09:16:02.531Z,4.70
2023-05-24T09:18:23.710Z,5.43
2023-05-24T09:20:45.298Z,5.30
2023-05-24T09:23:07.691Z,4.30
2023-05-24T09:25:29.677Z,5.10
2023-05-24T09:27:52.851Z,4.57
2023-05-24T09:30:16.473Z,4.40
2023-05-24T09:32:38.048Z,5.07
2023-05-24T09:35:00.350Z,4.47
2023-05-24T09:37:27.418Z,4.70
2023-05-24T09:39:51.978Z,5.10
2023-05-24T09:42:15.987Z,4.63
2023-05-24T09:44:38.829Z,4.80
2023-05-24T09:47:04.054Z,4.50
2023-05-24T09:49:25.449Z,4.27
2023-05-24T09:51:47.162Z,4.70
2023-05-24T09:54:09.781Z,4.87
2023-05-24T09:56:31.796Z,5.00
2023-05-24T09:58:54.871Z,4.60
2023-05-24T10:01:19.094Z,5.23
2023-05-24T10:03:40.177Z,4.73
2023-05-24T10:06:01.972Z,5.20
2023-05-24T10:08:23.333Z,5.00
2023-05-24T10:10:45.305Z,5.10
2023-05-24T10:13:07.649Z,4.87
2023-05-24T10:15:29.756Z,5.03
2023-05-24T10:17:52.593Z,4.97
2023-05-24T10:20:13.952Z,5.10
2023-05-24T10:22:38.506Z,5.87
2023-05-24T10:25:00.209Z,5.30
2023-05-24T10:27:24.268Z,4.37
2023-05-24T10:29:51.157Z,5.57
2023-05-24T10:32:13.121Z,4.83
2023-05-24T10:34:36.540Z,5.00
2023-05-24T10:36:58.465Z,4.90
2023-05-24T10:39:21.945Z,5.30
2023-05-24T10:41:43.418Z,4.77
2023-05-24T10:44:11.254Z,5.07
2023-05-24T10:46:33.895Z,5.67
2023-05-24T10:49:02.768Z,4.97
2023-05-24T10:51:33.888Z,4.23
2023-05-24T10:53:54.784Z,4.57
2023-05-24T10:56:17.061Z,4.60
2023-05-24T10:58:46.212Z,5.33
2023-05-24T11:01:13.542Z,5.77
2023-05-24T11:03:34.862Z,5.60
2023-05-24T11:05:57.304Z,5.90
2023-05-24T11:08:23.756Z,6.27
2023-05-24T11:10:45.469Z,5.67
2023-05-24T11:13:08.733Z,5.33
2023-05-24T11:15:30.546Z,5.23
2023-05-24T11:18:12.688Z,4.60
2023-05-24T11:20:34.556Z,5.73
2023-05-24T11:22:55.875Z,5.10
2023-05-24T11:25:19.775Z,5.33
2023-05-24T11:27:43.736Z,5.50
2023-05-24T11:30:06.129Z,5.70
2023-05-24T11:32:27.632Z,5.70
2023-05-24T11:34:48.957Z,5.23
2023-05-24T11:37:11.360Z,5.03
2023-05-24T11:39:33.123Z,5.67
2023-05-24T11:41:57.022Z,5.80
2023-05-24T11:44:19.298Z,5.17
2023-05-24T11:46:41.543Z,5.07
2023-05-24T11:49:03.682Z,4.93
2023-05-24T11:51:29.003Z,5.10
2023-05-24T11:53:53.124Z,5.07
2023-05-24T11:56:15.987Z,5.30
2023-05-24T11:58:44.588Z,5.90
2023-05-24T12:01:05.607Z,5.40
2023-05-24T12:03:27.044Z,5.53
2023-05-24T12:05:49.286Z,5.40
2023-05-24T12:08:12.720Z,5.37
2023-05-24T12:10:35.104Z,5.47
2023-05-24T12:12:56.277Z,5.47
2023-05-24T12:15:19.386Z,5.23
2023-05-24T12:17:41.441Z,4.90
2023-05-24T12:20:03.459Z,5.30
2023-05-24T12:22:28.209Z,5.17
2023-05-24T12:24:50.713Z,5.30
2023-05-24T12:27:12.308Z,4.83
2023-05-24T12:29:34.224Z,4.73
2023-05-24T12:31:56.681Z,5.07
2023-05-24T12:34:19.106Z,5.20
2023-05-24T12:36:43.074Z,5.67
2023-05-24T12:39:20.329Z,5.27
2023-05-24T12:41:42.800Z,4.87
2023-05-24T12:44:04.095Z,5.30
2023-05-24T12:46:25.767Z,5.43
2023-05-24T12:48:48.691Z,5.50
2023-05-24T12:51:09.832Z,4.73
2023-05-24T12:53:30.854Z,5.03
2023-05-24T12:55:55.974Z,4.40
2023-05-24T12:58:19.864Z,4.77
2023-05-24T13:00:41.807Z,5.67
2023-05-24T13:03:03.527Z,4.90
2023-05-24T13:05:28.588Z,5.20
2023-05-24T13:07:50.942Z,5.03
2023-05-24T13:10:12.474Z,4.50
2023-05-24T13:12:33.854Z,4.90
2023-05-24T13:14:55.321Z,4.80
2023-05-24T13:17:17.915Z,4.63
2023-05-24T13:19:39.533Z,4.20
2023-05-24T13:22:02.292Z,4.30
2023-05-24T13:24:24.088Z,4.60
2023-05-24T13:26:46.218Z,4.53
2023-05-24T13:29:32.255Z,4.50
2023-05-24T13:31:48.890Z,4.67
2023-05-24T13:34:10.834Z,4.67
2023-05-24T13:36:32.480Z,3.80
2023-05-24T13:39:12.838Z,3.57
2023-05-24T13:41:36.063Z,3.80
2023-05-24T13:43:57.174Z,4.10
2023-05-24T13:46:18.419Z,4.03
2023-05-24T13:48:39.730Z,4.40
2023-05-24T13:51:01.144Z,3.93
2023-05-24T13:53:23.163Z,4.30
2023-05-24T13:55:45.496Z,4.10
2023-05-24T13:58:06.716Z,4.07
2023-05-24T14:00:28.135Z,3.80
2023-05-24T14:02:49.404Z,3.80
2023-05-24T14:05:25.568Z,3.80
2023-05-24T14:07:48.445Z,3.70
2023-05-24T14:10:10.334Z,3.60
2023-05-24T14:12:32.943Z,3.63
2023-05-24T14:17:18.302Z,3.60
2023-05-24T14:19:39.473Z,3.40
2023-05-24T14:22:00.725Z,3.67
2023-05-24T14:24:22.097Z,3.30
2023-05-24T14:26:43.192Z,3.20
2023-05-24T14:29:05.910Z,2.90
2023-05-24T14:31:27.589Z,3.27
2023-05-24T14:33:49.221Z,3.10
2023-05-24T14:36:10.993Z,3.43
2023-05-24T14:38:32.076Z,3.40
2023-05-24T14:40:53.663Z,3.50
2023-05-24T14:43:14.788Z,3.00
2023-05-24T14:45:38.599Z,2.93
2023-05-24T14:48:01.032Z,3.40
2023-05-24T14:50:22.676Z,3.80
2023-05-24T14:52:43.546Z,3.10
2023-05-24T14:55:05.006Z,3.47
2023-05-24T14:57:25.994Z,2.87
2023-05-24T14:59:47.251Z,3.13
2023-05-24T15:02:09.781Z,3.20
2023-05-24T15:04:30.836Z,3.20
2023-05-24T15:06:52.225Z,3.07
2023-05-24T15:09:13.657Z,2.90
2023-05-24T15:11:34.985Z,3.00
2023-05-24T15:13:58.816Z,2.83
2023-05-24T15:16:20.398Z,2.90
2023-05-24T15:18:43.250Z,2.73
2023-05-24T15:21:04.768Z,2.60
2023-05-24T15:23:25.905Z,2.63
2023-05-24T15:25:47.277Z,2.70
2023-05-24T15:28:10.589Z,2.20
2023-05-24T15:30:31.616Z,2.77
2023-05-24T15:32:52.969Z,2.70
2023-05-24T15:35:15.882Z,2.50
2023-05-24T15:37:36.855Z,2.80
2023-05-24T15:39:58.379Z,2.80
2023-05-24T15:42:20.420Z,2.90
2023-05-24T15:44:41.938Z,2.70
2023-05-24T15:47:03.690Z,3.07
2023-05-24T15:49:25.619Z,2.80
2023-05-24T15:52:03.779Z,2.73
2023-05-24T15:54:26.949Z,2.70
2023-05-24T15:56:49.663Z,2.50
2023-05-24T15:59:10.862Z,3.07
2023-05-24T16:01:32.171Z,3.10
2023-05-24T16:03:53.448Z,2.57
2023-05-24T16:06:14.880Z,2.73
2023-05-24T16:08:37.815Z,2.77
2023-05-24T16:10:59.177Z,2.87
2023-05-24T16:13:21.519Z,3.03
2023-05-24T16:15:42.708Z,2.87
2023-05-24T16:18:04.883Z,2.60
2023-05-24T16:20:26.057Z,3.10
2023-05-24T16:22:50.374Z,2.90
2023-05-24T16:25:12.984Z,3.20
2023-05-24T16:27:34.444Z,3.03
2023-05-24T16:29:55.697Z,3.10
2023-05-24T16:32:17.214Z,3.43
2023-05-24T16:34:55.031Z,3.60
2023-05-24T16:37:17.579Z,3.37
2023-05-24T16:39:38.904Z,3.17
2023-05-24T16:42:02.112Z,3.53
2023-05-24T16:44:23.821Z,3.30
2023-05-24T16:46:45.834Z,3.30
2023-05-24T16:49:07.337Z,3.17
2023-05-24T16:51:29.485Z,3.13
2023-05-24T16:53:50.624Z,3.20
2023-05-24T16:56:11.926Z,3.40
2023-05-24T16:58:34.768Z,3.47
2023-05-24T17:00:56.183Z,3.07
2023-05-24T17:03:17.789Z,3.30
2023-05-24T17:05:39.447Z,3.63
2023-05-24T17:08:00.629Z,3.50
2023-05-24T17:10:22.087Z,3.17
2023-05-24T17:12:43.426Z,3.03
2023-05-24T17:15:06.849Z,2.90
2023-05-24T17:17:28.074Z,2.77
2023-05-24T17:19:49.765Z,2.97
2023-05-24T17:22:12.116Z,2.97
2023-05-24T17:24:33.641Z,2.90
2023-05-24T17:26:54.999Z,2.80
2023-05-24T17:29:16.325Z,2.77
2023-05-24T17:31:39.528Z,2.90
2023-05-24T17:34:01.143Z,2.83
2023-05-24T17:36:22.556Z,3.03
2023-05-24T17:38:44.043Z,3.03
2023-05-24T17:41:07.817Z,2.90
2023-05-24T17:43:31.778Z,3.17
2023-05-24T17:45:53.296Z,2.90
2023-05-24T17:48:16.073Z,3.03
2023-05-24T17:50:37.003Z,2.87
2023-05-24T17:52:59.749Z,3.13
2023-05-24T17:55:21.250Z,3.20
2023-05-24T17:57:42.665Z,3.10
2023-05-24T18:00:04.380Z,3.20
2023-05-24T18:02:26.046Z,2.90
2023-05-24T18:04:48.729Z,3.20
2023-05-24T18:07:09.698Z,2.90
2023-05-24T18:09:31.002Z,2.83
2023-05-24T18:11:52.177Z,3.40
2023-05-24T18:14:13.534Z,2.60
2023-05-24T18:16:34.922Z,3.10
2023-05-24T18:18:56.316Z,2.77
2023-05-24T18:21:19.037Z,2.90
2023-05-24T18:23:40.130Z,2.53
2023-05-24T18:26:03.166Z,2.73
2023-05-24T18:28:24.570Z,3.27
2023-05-24T18:30:46.293Z,2.90
2023-05-24T18:33:08.621Z,3.30
2023-05-24T18:35:30.206Z,3.27
2023-05-24T18:37:52.913Z,2.90
2023-05-24T18:40:14.253Z,2.77
2023-05-24T18:42:35.342Z,2.83
2023-05-24T18:44:56.659Z,2.60
2023-05-24T18:47:17.937Z,2.70
2023-05-24T18:49:39.254Z,3.03
2023-05-24T18:52:00.673Z,3.00
2023-05-24T18:54:23.026Z,2.77
2023-05-24T18:56:45.521Z,3.20
2023-05-24T18:59:06.425Z,2.83
2023-05-24T19:01:28.300Z,2.70
2023-05-24T19:03:49.641Z,2.63
2023-05-24T19:06:12.944Z,3.00
2023-05-24T19:08:34.397Z,2.60
2023-05-24T19:10:57.041Z,2.60
2023-05-24T19:13:18.262Z,2.53
2023-05-24T19:15:39.601Z,2.73
2023-05-24T19:18:01.631Z,2.40
2023-05-24T19:20:23.078Z,2.70
2023-05-24T19:22:44.427Z,3.00
2023-05-24T19:25:05.866Z,2.63
2023-05-24T19:27:28.460Z,2.50
2023-05-24T19:29:49.561Z,2.33
2023-05-24T19:32:11.467Z,2.60
2023-05-24T19:34:35.194Z,2.67
2023-05-24T19:36:56.598Z,2.40
2023-05-24T19:39:17.805Z,2.50
2023-05-24T19:41:39.240Z,2.70
2023-05-24T19:44:02.065Z,2.50
2023-05-24T19:46:23.838Z,2.50
2023-05-24T19:48:45.479Z,2.30
2023-05-24T19:51:06.635Z,2.67
2023-05-24T19:53:28.165Z,2.70
2023-05-24T19:55:49.234Z,2.50
2023-05-24T19:58:10.480Z,2.63
2023-05-24T20:00:33.236Z,2.80
2023-05-24T20:02:54.589Z,2.60
2023-05-24T20:05:17.361Z,2.50
2023-05-24T20:07:38.907Z,2.70
2023-05-24T20:10:00.801Z,2.70
2023-05-24T20:12:23.366Z,2.40
2023-05-24T20:14:44.574Z,2.77
2023-05-24T20:17:07.459Z,2.30
2023-05-24T20:19:29.061Z,2.50
2023-05-24T20:21:50.230Z,2.93
2023-05-24T20:24:11.397Z,2.33
2023-05-24T20:26:33.881Z,2.80
2023-05-24T20:28:54.797Z,2.50
2023-05-24T20:31:16.666Z,2.70
2023-05-24T20:33:39.686Z,2.50
2023-05-24T20:36:01.107Z,2.50
2023-05-24T20:38:23.162Z,2.63
2023-05-24T20:40:44.482Z,2.50
2023-05-24T20:43:05.863Z,2.77
2023-05-24T20:45:27.192Z,2.70
2023-05-24T20:47:48.467Z,2.50
2023-05-24T20:50:11.280Z,2.70
2023-05-24T20:52:32.636Z,2.53
2023-05-24T20:54:53.893Z,2.30
2023-05-24T20:57:15.169Z,2.77
2023-05-24T20:59:36.521Z,2.67
2023-05-24T21:01:57.813Z,2.93
2023-05-24T21:04:19.479Z,2.57
2023-05-24T21:06:42.004Z,2.80
2023-05-24T21:09:03.490Z,2.57
2023-05-24T21:11:25.159Z,2.70
2023-05-24T21:13:46.620Z,2.70
2023-05-24T21:16:07.956Z,2.63
2023-05-24T21:18:29.346Z,2.60
2023-05-24T21:20:50.918Z,2.90
2023-05-24T21:23:13.807Z,2.60
2023-05-24T21:25:34.733Z,2.80
2023-05-24T21:27:56.327Z,2.63
2023-05-24T21:30:17.631Z,2.70
2023-05-24T21:32:39.030Z,2.97
2023-05-24T21:35:00.065Z,2.90
2023-05-24T21:37:21.276Z,2.70
2023-05-24T21:39:44.668Z,3.20
2023-05-24T21:42:06.729Z,2.90
2023-05-24T21:44:27.985Z,3.00
2023-05-24T21:46:49.254Z,2.73
2023-05-24T21:49:10.393Z,2.60
2023-05-24T21:51:31.624Z,3.30
2023-05-24T21:53:53.539Z,2.97
2023-05-24T21:56:16.005Z,2.70
2023-05-24T21:58:38.417Z,3.00
2023-05-24T22:00:59.505Z,2.60
2023-05-24T22:03:21.013Z,2.80
2023-05-24T22:05:42.288Z,2.70
2023-05-24T22:08:03.497Z,2.80
2023-05-24T22:10:24.836Z,2.90
2023-05-24T22:12:47.943Z,3.20
2023-05-24T22:15:09.907Z,3.00
2023-05-24T22:17:32.718Z,3.00
2023-05-24T22:19:54.159Z,3.50
2023-05-24T22:22:19.480Z,3.43
2023-05-24T22:24:40.596Z,3.00
2023-05-24T22:27:02.573Z,2.87
2023-05-24T22:29:25.408Z,2.63
2023-05-24T22:31:46.692Z,3.03
2023-05-24T22:34:07.917Z,2.73
2023-05-24T22:36:29.492Z,3.07
2023-05-24T22:38:50.515Z,3.20
2023-05-24T22:41:11.786Z,2.73
2023-05-24T22:43:32.953Z,3.23
2023-05-24T22:45:55.563Z,2.97
2023-05-24T22:48:18.028Z,3.07
2023-05-24T22:50:39.366Z,2.97
2023-05-24T22:53:00.723Z,3.50
2023-05-24T22:55:22.064Z,2.67
2023-05-24T22:57:43.312Z,3.27
2023-05-24T23:00:07.816Z,2.70
2023-05-24T23:02:30.481Z,2.90
2023-05-24T23:04:51.638Z,2.90
2023-05-24T23:07:15.349Z,3.70
2023-05-24T23:09:37.779Z,3.30
2023-05-24T23:11:59.014Z,3.33
2023-05-24T23:14:20.197Z,3.13
2023-05-24T23:16:45.251Z,3.43
2023-05-24T23:19:08.441Z,3.33
2023-05-24T23:21:29.836Z,3.70
2023-05-24T23:23:51.415Z,3.37
2023-05-24T23:26:12.351Z,3.60
2023-05-24T23:28:33.808Z,3.30
2023-05-24T23:30:54.882Z,3.40
2023-05-24T23:33:16.054Z,3.37
2023-05-24T23:35:39.813Z,3.30
2023-05-24T23:38:01.221Z,3.00
2023-05-24T23:40:22.597Z,3.37
2023-05-24T23:42:43.749Z,3.63
2023-05-24T23:45:05.560Z,3.67
2023-05-24T23:47:27.022Z,3.93
2023-05-24T23:49:48.317Z,3.47
2023-05-24T23:52:12.145Z,3.50
2023-05-24T23:54:33.995Z,3.70
2023-05-24T23:56:55.617Z,3.30
2023-05-24T23:59:17.020Z,3.57
